createdAt,value
2023-01-07T00:00:10.892Z,2.60
2023-01-07T00:03:02.069Z,2.00
2023-01-07T00:05:30.831Z,2.50
2023-01-07T00:08:00.775Z,2.40
2023-01-07T00:10:29.533Z,2.70
2023-01-07T00:12:58.404Z,4.90
2023-01-07T00:15:27.203Z,8.20
2023-01-07T00:17:55.675Z,8.10
2023-01-07T00:20:24.489Z,9.30
2023-01-07T00:22:53.152Z,7.80
2023-01-07T00:25:22.048Z,6.30
2023-01-07T00:27:51.472Z,5.10
2023-01-07T00:30:20.031Z,3.50
2023-01-07T00:33:09.198Z,4.20
2023-01-07T00:35:38.205Z,3.50
2023-01-07T00:38:07.505Z,3.10
2023-01-07T00:40:36.288Z,2.40
2023-01-07T00:43:05.995Z,2.80
2023-01-07T00:45:37.386Z,3.10
2023-01-07T00:48:06.708Z,3.10
2023-01-07T00:50:37.486Z,3.00
2023-01-07T00:53:06.586Z,2.70
2023-01-07T00:55:35.478Z,2.80
2023-01-07T00:58:05.179Z,2.20
2023-01-07T01:00:34.213Z,2.30
2023-01-07T01:03:03.689Z,2.50
2023-01-07T01:05:32.963Z,2.30
2023-01-07T01:08:01.875Z,2.40
2023-01-07T01:10:31.307Z,2.30
2023-01-07T01:13:01.427Z,2.30
2023-01-07T01:15:30.138Z,3.00
2023-01-07T01:17:58.666Z,2.50
2023-01-07T01:20:27.358Z,2.70
2023-01-07T01:22:55.953Z,2.70
2023-01-07T01:25:24.829Z,2.20
2023-01-07T01:27:53.417Z,2.60
2023-01-07T01:30:22.104Z,2.60
2023-01-07T01:32:51.340Z,2.60
2023-01-07T01:35:20.126Z,2.60
2023-01-07T01:37:49.700Z,2.40
2023-01-07T01:40:18.488Z,2.30
2023-01-07T01:42:47.072Z,2.50
2023-01-07T01:45:18.015Z,2.50
2023-01-07T01:47:59.806Z,2.80
2023-01-07T01:50:39.857Z,2.60
2023-01-07T01:53:22.984Z,2.50
2023-01-07T01:56:04.844Z,3.00
2023-01-07T01:58:41.457Z,2.90
2023-01-07T02:01:10.355Z,2.60
2023-01-07T02:03:39.950Z,2.50
2023-01-07T02:06:18.060Z,2.60
2023-01-07T02:08:46.656Z,2.30
2023-01-07T02:11:25.469Z,2.70
2023-01-07T02:14:29.587Z,2.60
2023-01-07T02:17:36.954Z,2.80
2023-01-07T02:20:50.321Z,2.70
2023-01-07T02:24:08.672Z,2.70
2023-01-07T02:26:43.293Z,2.40
2023-01-07T02:30:00.416Z,3.20
2023-01-07T02:32:39.554Z,2.60
2023-01-07T02:35:43.971Z,2.50
2023-01-07T02:38:32.832Z,3.30
2023-01-07T02:41:44.226Z,3.40
2023-01-07T02:44:43.625Z,2.90
2023-01-07T02:47:34.538Z,3.20
2023-01-07T02:50:07.503Z,2.80
2023-01-07T02:52:37.546Z,2.60
2023-01-07T02:55:54.359Z,3.10
2023-01-07T02:58:52.330Z,3.70
2023-01-07T03:02:09.146Z,3.50
2023-01-07T03:04:40.813Z,2.80
2023-01-07T03:07:21.479Z,2.70
2023-01-07T03:10:01.936Z,3.20
2023-01-07T03:12:45.979Z,2.70
2023-01-07T03:15:37.298Z,2.50
2023-01-07T03:18:30.461Z,2.70
2023-01-07T03:21:11.315Z,2.70
2023-01-07T03:23:48.003Z,2.90
2023-01-07T03:26:26.997Z,2.80
2023-01-07T03:28:59.816Z,2.80
2023-01-07T03:31:29.948Z,2.60
2023-01-07T03:34:12.754Z,2.90
2023-01-07T03:36:53.320Z,3.40
2023-01-07T03:39:26.208Z,2.90
2023-01-07T03:42:14.353Z,2.90
2023-01-07T03:44:43.452Z,3.20
2023-01-07T03:47:13.013Z,4.60
2023-01-07T03:49:42.060Z,6.20
2023-01-07T03:52:10.941Z,5.50
2023-01-07T03:54:39.525Z,3.50
2023-01-07T03:57:08.829Z,5.80
2023-01-07T03:59:38.155Z,5.60
2023-01-07T04:02:07.266Z,3.40
2023-01-07T04:04:37.348Z,2.70
2023-01-07T04:07:06.446Z,2.70
2023-01-07T04:09:35.031Z,2.30
2023-01-07T04:12:04.025Z,2.90
2023-01-07T04:14:33.116Z,2.60
2023-01-07T04:17:01.703Z,2.50
2023-01-07T04:19:30.182Z,2.20
2023-01-07T04:22:00.104Z,2.70
2023-01-07T04:24:28.989Z,2.40
2023-01-07T04:26:57.681Z,3.10
2023-01-07T04:29:26.468Z,3.20
2023-01-07T04:31:55.672Z,2.50
2023-01-07T04:34:25.371Z,3.10
2023-01-07T04:36:54.368Z,2.80
2023-01-07T04:39:24.185Z,3.00
2023-01-07T04:41:52.971Z,2.90
2023-01-07T04:44:21.985Z,3.10
2023-01-07T04:46:50.962Z,3.90
2023-01-07T04:49:20.700Z,3.90
2023-01-07T04:51:49.563Z,3.80
2023-01-07T04:54:18.353Z,3.50
2023-01-07T04:56:46.939Z,3.50
2023-01-07T04:59:16.442Z,3.90
2023-01-07T05:01:45.362Z,4.20
2023-01-07T05:04:14.382Z,4.70
2023-01-07T05:06:43.320Z,4.50
2023-01-07T05:09:12.545Z,4.90
2023-01-07T05:11:41.111Z,4.60
2023-01-07T05:14:12.581Z,5.50
2023-01-07T05:16:41.470Z,5.30
2023-01-07T05:19:12.091Z,5.00
2023-01-07T05:21:44.049Z,4.50
2023-01-07T05:24:13.451Z,4.70
2023-01-07T05:26:42.337Z,4.70
2023-01-07T05:29:11.345Z,4.70
2023-01-07T05:31:41.356Z,5.20
2023-01-07T05:34:10.555Z,5.60
2023-01-07T05:36:39.545Z,5.20
2023-01-07T05:39:08.443Z,6.10
2023-01-07T05:41:37.328Z,5.20
2023-01-07T05:44:06.337Z,5.70
2023-01-07T05:46:35.057Z,5.90
2023-01-07T05:49:03.901Z,4.90
2023-01-07T05:51:32.690Z,5.70
2023-01-07T05:54:01.307Z,5.80
2023-01-07T05:56:29.960Z,5.00
2023-01-07T05:58:58.545Z,5.20
2023-01-07T06:01:27.571Z,6.00
2023-01-07T06:03:56.458Z,5.20
2023-01-07T06:06:25.329Z,5.10
2023-01-07T06:08:53.907Z,4.60
2023-01-07T06:11:22.493Z,3.80
2023-01-07T06:13:51.281Z,8.80
2023-01-07T06:16:19.762Z,6.90
2023-01-07T06:18:48.350Z,6.40
2023-01-07T06:21:18.528Z,8.20
2023-01-07T06:23:47.049Z,7.30
2023-01-07T06:26:15.634Z,7.40
2023-01-07T06:28:44.342Z,8.40
2023-01-07T06:31:13.291Z,11.00
2023-01-07T06:33:42.106Z,9.40
2023-01-07T06:36:10.791Z,11.00
2023-01-07T06:38:39.584Z,12.40
2023-01-07T06:41:09.373Z,13.20
2023-01-07T06:43:37.876Z,12.70
2023-01-07T06:46:06.822Z,12.00
2023-01-07T06:48:35.355Z,10.00
2023-01-07T06:51:04.341Z,10.40
2023-01-07T06:53:32.932Z,10.70
2023-01-07T06:56:01.412Z,10.60
2023-01-07T06:58:30.412Z,12.60
2023-01-07T07:01:07.612Z,16.30
2023-01-07T07:03:36.176Z,13.00
2023-01-07T07:06:05.664Z,13.40
2023-01-07T07:08:34.308Z,13.30
2023-01-07T07:11:02.880Z,12.50
2023-01-07T07:13:31.444Z,11.80
2023-01-07T07:16:00.184Z,10.90
2023-01-07T07:18:29.320Z,9.90
2023-01-07T07:20:58.930Z,10.50
2023-01-07T07:23:27.618Z,10.50
2023-01-07T07:25:56.200Z,9.60
2023-01-07T07:28:24.910Z,10.30
2023-01-07T07:30:53.646Z,11.60
2023-01-07T07:33:22.779Z,8.30
2023-01-07T07:35:51.500Z,7.50
2023-01-07T07:38:20.145Z,7.10
2023-01-07T07:40:49.280Z,8.20
2023-01-07T07:43:17.844Z,8.90
2023-01-07T07:45:46.614Z,8.30
2023-01-07T07:48:16.516Z,9.20
2023-01-07T07:50:45.180Z,10.20
2023-01-07T07:53:15.440Z,11.30
2023-01-07T07:55:44.043Z,12.80
2023-01-07T07:58:13.630Z,14.10
2023-01-07T08:00:42.218Z,15.30
2023-01-07T08:03:11.792Z,16.00
2023-01-07T08:05:43.769Z,14.40
2023-01-07T08:08:15.061Z,13.60
2023-01-07T08:10:43.963Z,12.00
2023-01-07T08:13:12.531Z,10.20
2023-01-07T08:15:41.200Z,11.50
2023-01-07T08:18:10.629Z,14.80
2023-01-07T08:20:39.338Z,14.40
2023-01-07T08:23:09.337Z,12.30
2023-01-07T08:25:37.892Z,12.30
2023-01-07T08:28:06.578Z,11.00
2023-01-07T08:30:35.677Z,8.80
2023-01-07T08:33:07.706Z,8.40
2023-01-07T08:35:36.428Z,6.20
2023-01-07T08:38:09.728Z,5.20
2023-01-07T08:40:39.232Z,5.00
2023-01-07T08:43:12.470Z,7.00
2023-01-07T08:45:41.015Z,18.50
2023-01-07T08:48:09.693Z,9.90
2023-01-07T08:50:38.294Z,11.10
2023-01-07T08:53:06.760Z,20.50
2023-01-07T08:55:35.553Z,15.20
2023-01-07T08:58:04.143Z,14.00
2023-01-07T09:00:32.946Z,20.90
2023-01-07T09:03:03.330Z,26.00
2023-01-07T09:05:33.366Z,15.40
2023-01-07T09:08:04.311Z,9.60
2023-01-07T09:10:32.798Z,10.10
2023-01-07T09:13:01.479Z,7.40
2023-01-07T09:15:30.162Z,6.00
2023-01-07T09:17:58.750Z,16.80
2023-01-07T09:20:27.336Z,7.50
2023-01-07T09:22:55.929Z,15.40
2023-01-07T09:25:24.835Z,9.80
2023-01-07T09:27:53.497Z,18.40
2023-01-07T09:30:22.181Z,12.10
2023-01-07T09:32:50.779Z,8.00
2023-01-07T09:35:20.414Z,11.30
2023-01-07T09:37:49.062Z,13.40
2023-01-07T09:40:30.754Z,9.80
2023-01-07T09:43:18.686Z,7.60
2023-01-07T09:45:54.046Z,4.40
2023-01-07T09:48:41.081Z,4.10
2023-01-07T09:51:28.894Z,4.70
2023-01-07T09:54:04.342Z,4.30
2023-01-07T09:56:35.608Z,7.20
2023-01-07T09:59:05.960Z,10.60
2023-01-07T10:01:45.244Z,6.20
2023-01-07T10:04:34.726Z,13.80
2023-01-07T10:07:09.350Z,13.70
2023-01-07T10:10:08.445Z,16.90
2023-01-07T10:13:00.806Z,15.60
2023-01-07T10:15:48.725Z,15.40
2023-01-07T10:18:33.703Z,18.00
2023-01-07T10:21:27.062Z,18.10
2023-01-07T10:24:05.684Z,29.40
2023-01-07T10:26:41.156Z,14.10
2023-01-07T10:29:28.035Z,23.60
2023-01-07T10:32:01.874Z,20.80
2023-01-07T10:34:38.841Z,12.90
2023-01-07T10:37:33.526Z,13.70
2023-01-07T10:40:17.272Z,27.40
2023-01-07T10:43:20.043Z,17.40
2023-01-07T10:46:20.521Z,11.40
2023-01-07T10:49:03.094Z,10.80
2023-01-07T10:52:17.960Z,9.20
2023-01-07T10:55:14.197Z,10.10
2023-01-07T10:57:43.289Z,10.60
2023-01-07T11:00:17.222Z,13.00
2023-01-07T11:02:58.126Z,10.50
2023-01-07T11:05:37.209Z,5.80
2023-01-07T11:08:16.437Z,8.00
2023-01-07T11:10:45.129Z,10.80
2023-01-07T11:13:19.701Z,10.50
2023-01-07T11:16:00.895Z,7.20
2023-01-07T11:18:52.876Z,12.20
2023-01-07T11:21:49.001Z,11.00
2023-01-07T11:24:30.912Z,9.30
2023-01-07T11:27:18.548Z,7.20
2023-01-07T11:30:04.000Z,7.60
2023-01-07T11:32:38.678Z,5.40
2023-01-07T11:35:29.259Z,4.50
2023-01-07T11:38:00.237Z,6.00
2023-01-07T11:40:32.920Z,5.40
2023-01-07T11:43:16.587Z,6.80
2023-01-07T11:46:19.418Z,5.80
2023-01-07T11:49:03.331Z,6.40
2023-01-07T11:51:40.800Z,5.40
2023-01-07T11:54:26.336Z,9.90
2023-01-07T11:57:25.801Z,7.80
2023-01-07T12:00:31.666Z,8.10
2023-01-07T12:03:13.427Z,5.20
2023-01-07T12:05:45.333Z,3.60
2023-01-07T12:08:22.611Z,3.40
2023-01-07T12:11:02.977Z,4.80
2023-01-07T12:13:32.505Z,4.40
2023-01-07T12:16:05.815Z,6.10
2023-01-07T12:19:11.011Z,4.00
2023-01-07T12:21:51.776Z,5.40
2023-01-07T12:24:50.165Z,5.90
2023-01-07T12:27:46.705Z,5.00
2023-01-07T12:30:44.130Z,10.40
2023-01-07T12:33:32.410Z,10.50
2023-01-07T12:36:56.086Z,5.60
2023-01-07T12:39:39.929Z,4.00
2023-01-07T12:42:18.961Z,5.80
2023-01-07T12:44:52.702Z,2.80
2023-01-07T12:47:34.938Z,9.20
2023-01-07T12:50:32.231Z,12.80
2023-01-07T12:53:16.171Z,4.40
2023-01-07T12:55:54.297Z,3.00
2023-01-07T12:59:47.339Z,4.70
2023-01-07T13:02:30.980Z,6.70
2023-01-07T13:05:36.754Z,6.50
2023-01-07T13:09:00.420Z,5.80
2023-01-07T13:11:59.205Z,3.70
2023-01-07T13:14:36.784Z,4.20
2023-01-07T13:17:30.781Z,4.50
2023-01-07T13:20:58.660Z,4.50
2023-01-07T13:24:00.744Z,3.70
2023-01-07T13:27:01.135Z,2.30
2023-01-07T13:30:01.587Z,3.30
2023-01-07T13:32:35.919Z,1.80
2023-01-07T13:35:29.169Z,1.60
2023-01-07T13:38:24.173Z,1.80
2023-01-07T13:41:20.203Z,3.50
2023-01-07T13:44:40.093Z,1.80
2023-01-07T13:47:12.357Z,1.90
2023-01-07T13:49:57.065Z,2.40
2023-01-07T13:52:33.842Z,3.40
2023-01-07T13:55:29.763Z,2.70
2023-01-07T13:57:59.058Z,5.50
2023-01-07T14:01:18.961Z,8.60
2023-01-07T14:03:55.179Z,6.00
2023-01-07T14:06:24.175Z,4.00
2023-01-07T14:09:00.219Z,7.10
2023-01-07T14:11:32.809Z,7.20
2023-01-07T14:14:54.642Z,3.40
2023-01-07T14:17:40.648Z,3.90
2023-01-07T14:20:27.454Z,3.90
2023-01-07T14:23:39.793Z,3.10
2023-01-07T14:26:17.568Z,2.60
2023-01-07T14:29:40.108Z,5.10
2023-01-07T14:32:38.253Z,5.90
2023-01-07T14:35:13.327Z,4.70
2023-01-07T14:37:47.436Z,3.50
2023-01-07T14:40:30.665Z,10.90
2023-01-07T14:43:01.289Z,4.90
2023-01-07T14:45:42.380Z,3.50
2023-01-07T14:48:10.967Z,4.80
2023-01-07T14:51:36.584Z,5.40
2023-01-07T14:54:33.533Z,5.10
2023-01-07T14:57:29.967Z,3.40
2023-01-07T15:00:54.112Z,4.10
2023-01-07T15:04:09.335Z,4.30
2023-01-07T15:06:42.219Z,13.30
2023-01-07T15:09:39.071Z,10.80
2023-01-07T15:12:37.862Z,11.90
2023-01-07T15:15:57.048Z,12.70
2023-01-07T15:18:26.129Z,9.50
2023-01-07T15:21:33.933Z,6.90
2023-01-07T15:24:25.968Z,6.80
2023-01-07T15:27:39.528Z,8.00
2023-01-07T15:30:36.152Z,8.20
2023-01-07T15:33:35.554Z,9.40
2023-01-07T15:36:09.251Z,8.50
2023-01-07T15:38:56.578Z,12.10
2023-01-07T15:41:36.057Z,12.20
2023-01-07T15:44:25.176Z,15.00
2023-01-07T15:46:54.137Z,15.80
2023-01-07T15:49:28.151Z,16.00
2023-01-07T15:52:02.249Z,23.50
2023-01-07T15:54:39.637Z,18.90
2023-01-07T15:57:37.279Z,18.90
2023-01-07T16:00:09.024Z,13.80
2023-01-07T16:02:43.943Z,11.40
2023-01-07T16:05:12.943Z,9.80
2023-01-07T16:07:53.739Z,4.80
2023-01-07T16:10:27.648Z,3.40
2023-01-07T16:13:16.499Z,4.00
2023-01-07T16:15:45.290Z,3.70
2023-01-07T16:18:15.103Z,3.50
2023-01-07T16:20:58.359Z,3.50
2023-01-07T16:23:31.178Z,6.60
2023-01-07T16:26:23.345Z,17.30
2023-01-07T16:28:57.943Z,16.10
2023-01-07T16:31:29.958Z,13.40
2023-01-07T16:34:00.443Z,11.50
2023-01-07T16:36:32.686Z,47.80
2023-01-07T16:39:14.851Z,37.90
2023-01-07T16:41:47.493Z,29.70
2023-01-07T16:44:45.493Z,64.80
2023-01-07T16:47:27.298Z,23.80
2023-01-07T16:50:17.780Z,23.90
2023-01-07T16:52:57.477Z,28.00
2023-01-07T16:55:47.794Z,26.20
2023-01-07T16:58:38.625Z,23.20
2023-01-07T17:01:09.927Z,24.60
2023-01-07T17:03:52.131Z,20.70
2023-01-07T17:06:27.622Z,17.90
2023-01-07T17:08:57.853Z,19.60
2023-01-07T17:11:39.032Z,18.70
2023-01-07T17:14:38.637Z,15.50
2023-01-07T17:17:28.009Z,17.50
2023-01-07T17:20:25.592Z,17.70
2023-01-07T17:22:54.183Z,17.00
2023-01-07T17:25:28.693Z,18.70
2023-01-07T17:28:08.647Z,17.40
2023-01-07T17:30:37.706Z,18.90
2023-01-07T17:33:06.415Z,20.90
2023-01-07T17:35:44.492Z,28.00
2023-01-07T17:38:15.007Z,52.80
2023-01-07T17:40:45.304Z,47.40
2023-01-07T17:43:35.571Z,31.30
2023-01-07T17:46:13.179Z,25.80
2023-01-07T17:48:41.749Z,25.80
2023-01-07T17:51:11.963Z,19.50
2023-01-07T17:53:46.632Z,17.90
2023-01-07T17:56:16.310Z,17.10
2023-01-07T17:58:45.412Z,16.70
2023-01-07T18:01:24.586Z,19.20
2023-01-07T18:03:53.735Z,20.90
2023-01-07T18:06:24.987Z,23.70
2023-01-07T18:08:54.404Z,29.10
2023-01-07T18:11:46.841Z,33.60
2023-01-07T18:14:16.431Z,35.40
2023-01-07T18:16:45.292Z,32.80
2023-01-07T18:19:15.579Z,29.00
2023-01-07T18:21:44.142Z,27.50
2023-01-07T18:24:21.508Z,23.20
2023-01-07T18:26:50.116Z,29.00
2023-01-07T18:29:21.284Z,30.00
2023-01-07T18:31:49.994Z,27.30
2023-01-07T18:34:18.831Z,21.50
2023-01-07T18:36:47.318Z,15.00
2023-01-07T18:39:19.982Z,14.10
2023-01-07T18:41:51.819Z,12.60
2023-01-07T18:44:23.278Z,11.50
2023-01-07T18:46:52.002Z,16.10
2023-01-07T18:49:20.889Z,9.50
2023-01-07T18:51:49.882Z,7.80
2023-01-07T18:54:18.573Z,7.40
2023-01-07T18:56:47.484Z,6.80
2023-01-07T18:59:16.052Z,8.20
2023-01-07T19:01:44.817Z,14.30
2023-01-07T19:04:13.793Z,11.90
2023-01-07T19:06:42.525Z,8.40
2023-01-07T19:09:11.318Z,7.70
2023-01-07T19:11:50.230Z,5.60
2023-01-07T19:14:18.816Z,5.00
2023-01-07T19:16:47.451Z,4.10
2023-01-07T19:19:16.699Z,5.50
2023-01-07T19:21:47.028Z,24.60
2023-01-07T19:24:17.452Z,32.10
2023-01-07T19:26:47.168Z,32.10
2023-01-07T19:29:15.852Z,30.80
2023-01-07T19:31:45.953Z,32.70
2023-01-07T19:34:16.812Z,25.40
2023-01-07T19:36:47.478Z,29.10
2023-01-07T19:39:18.779Z,23.30
2023-01-07T19:41:48.279Z,21.80
2023-01-07T19:44:18.311Z,25.10
2023-01-07T19:46:49.096Z,24.10
2023-01-07T19:49:18.865Z,23.90
2023-01-07T19:51:47.968Z,22.60
2023-01-07T19:54:17.141Z,20.80
2023-01-07T19:56:50.349Z,20.40
2023-01-07T19:59:24.565Z,16.90
2023-01-07T20:02:06.028Z,12.80
2023-01-07T20:04:35.261Z,15.30
2023-01-07T20:07:04.655Z,33.00
2023-01-07T20:09:34.777Z,27.10
2023-01-07T20:12:03.389Z,17.90
2023-01-07T20:14:32.048Z,52.70
2023-01-07T20:17:02.921Z,37.10
2023-01-07T20:19:32.805Z,31.40
2023-01-07T20:22:03.559Z,28.60
2023-01-07T20:24:34.283Z,219.40
2023-01-07T20:27:05.948Z,205.30
2023-01-07T20:29:37.748Z,63.40
2023-01-07T20:32:10.629Z,30.40
2023-01-07T20:34:45.723Z,14.40
2023-01-07T20:37:19.523Z,17.50
2023-01-07T20:39:50.192Z,22.20
2023-01-07T20:42:22.131Z,22.70
2023-01-07T20:44:54.752Z,32.00
2023-01-07T20:47:26.707Z,20.40
2023-01-07T20:50:01.570Z,19.60
2023-01-07T20:52:34.117Z,21.30
2023-01-07T20:55:05.576Z,37.90
2023-01-07T20:57:34.819Z,39.10
2023-01-07T21:00:05.468Z,20.10
2023-01-07T21:02:35.601Z,27.40
2023-01-07T21:05:06.549Z,42.30
2023-01-07T21:07:36.201Z,45.90
2023-01-07T21:10:07.504Z,53.70
2023-01-07T21:12:37.916Z,27.00
2023-01-07T21:15:08.143Z,12.70
2023-01-07T21:17:37.187Z,10.10
2023-01-07T21:20:13.337Z,69.10
2023-01-07T21:22:43.237Z,109.10
2023-01-07T21:25:16.436Z,99.10
2023-01-07T21:27:49.401Z,115.00
2023-01-07T21:30:19.691Z,208.10
2023-01-07T21:32:50.844Z,31.80
2023-01-07T21:35:23.422Z,20.00
2023-01-07T21:37:55.182Z,17.70
2023-01-07T21:40:27.319Z,10.60
2023-01-07T21:43:01.767Z,12.70
2023-01-07T21:45:32.933Z,10.40
2023-01-07T21:48:02.639Z,19.40
2023-01-07T21:50:33.061Z,18.60
2023-01-07T21:53:01.633Z,12.30
2023-01-07T21:55:30.322Z,7.90
2023-01-07T21:57:59.524Z,7.20
2023-01-07T22:00:28.895Z,13.40
2023-01-07T22:02:57.865Z,12.70
2023-01-07T22:05:26.406Z,14.70
2023-01-07T22:07:55.192Z,6.60
2023-01-07T22:10:25.657Z,6.30
2023-01-07T22:12:55.555Z,7.10
2023-01-07T22:15:25.348Z,8.60
2023-01-07T22:17:56.385Z,6.40
2023-01-07T22:20:26.202Z,10.90
2023-01-07T22:22:55.836Z,11.50
2023-01-07T22:25:24.292Z,10.40
2023-01-07T22:28:02.767Z,6.40
2023-01-07T22:30:34.550Z,8.90
2023-01-07T22:33:03.152Z,4.50
2023-01-07T22:35:35.166Z,4.80
2023-01-07T22:38:04.532Z,4.50
2023-01-07T22:40:38.592Z,6.20
2023-01-07T22:43:12.096Z,5.70
2023-01-07T22:45:58.950Z,5.90
2023-01-07T22:48:32.400Z,5.20
2023-01-07T22:51:12.393Z,7.00
2023-01-07T22:53:41.486Z,7.40
2023-01-07T22:56:10.183Z,4.90
2023-01-07T22:58:38.866Z,4.70
2023-01-07T23:01:13.491Z,4.20
2023-01-07T23:03:43.817Z,4.00
2023-01-07T23:06:15.220Z,4.50
2023-01-07T23:08:44.574Z,3.90
2023-01-07T23:11:33.326Z,4.90
2023-01-07T23:14:03.079Z,6.10
2023-01-07T23:16:31.922Z,6.80
2023-01-07T23:19:00.838Z,7.70
2023-01-07T23:21:31.768Z,10.60
2023-01-07T23:24:00.995Z,5.80
2023-01-07T23:26:29.648Z,6.30
2023-01-07T23:28:58.436Z,6.10
2023-01-07T23:31:27.241Z,6.90
2023-01-07T23:33:56.425Z,15.90
2023-01-07T23:36:25.238Z,6.40
2023-01-07T23:38:54.340Z,5.70
2023-01-07T23:41:23.693Z,4.80
2023-01-07T23:43:52.401Z,3.80
2023-01-07T23:46:21.192Z,4.20
2023-01-07T23:48:50.182Z,4.20
2023-01-07T23:51:21.423Z,4.40
2023-01-07T23:53:50.425Z,4.40
2023-01-07T23:56:21.703Z,3.70
2023-01-07T23:58:51.086Z,3.90
